Sandbach, United Kingdom
Current Conditions -  °F | °C
As of 11:20 AM on Tuesday 21 Oct 2014 (Local Time) from EGCC Reporting Station
Rain Showers Rain Showers  
Wind Chill: 50°   Ceiling: Unl
Heat Index: 50°   Visibility: 6mi
Dew Point: 41°   Wind: 28mph
Humidity: 71%   Direction: 290°WNW
Pressure: 29.56"   Gusts: 41mph
Location:  53.14°N, 2.36°W
Report Text: EGCC 211020Z 29024G36KT 9999 VCSH SCT032CB 10/05 Q1001 TEMPO SHRA
Loading
Personal Weather Stations






























Interactive Weather Map
Tropical Storm Tracking
New forecast layout! Learn more

10-Day Weather Forecast

Advertisements
Track Severe Weather on mobile